sensor_id;sensor_type;location;lat;lon;timestamp;P1;durP1;ratioP1;P2;durP2;ratioP2
71366;SDS011;60030;52.274;8.040;2022-08-01T00:01:23;9.25;;;4.63;;
71366;SDS011;60030;52.274;8.040;2022-08-01T00:03:51;8.38;;;4.97;;
71366;SDS011;60030;52.274;8.040;2022-08-01T00:06:18;6.22;;;4.35;;
71366;SDS011;60030;52.274;8.040;2022-08-01T00:08:45;7.00;;;5.15;;
71366;SDS011;60030;52.274;8.040;2022-08-01T00:11:13;6.72;;;4.80;;
71366;SDS011;60030;52.274;8.040;2022-08-01T00:13:40;7.35;;;5.05;;
71366;SDS011;60030;52.274;8.040;2022-08-01T00:16:07;8.27;;;5.25;;
71366;SDS011;60030;52.274;8.040;2022-08-01T00:18:34;7.18;;;4.15;;
71366;SDS011;60030;52.274;8.040;2022-08-01T00:21:01;8.65;;;4.72;;
71366;SDS011;60030;52.274;8.040;2022-08-01T00:23:29;5.40;;;4.32;;
71366;SDS011;60030;52.274;8.040;2022-08-01T00:25:56;6.53;;;4.18;;
71366;SDS011;60030;52.274;8.040;2022-08-01T00:28:24;6.35;;;4.35;;
71366;SDS011;60030;52.274;8.040;2022-08-01T00:30:52;5.28;;;3.75;;
71366;SDS011;60030;52.274;8.040;2022-08-01T00:33:19;5.22;;;3.70;;
71366;SDS011;60030;52.274;8.040;2022-08-01T00:35:46;4.90;;;3.55;;
71366;SDS011;60030;52.274;8.040;2022-08-01T00:38:13;5.30;;;3.75;;
71366;SDS011;60030;52.274;8.040;2022-08-01T00:40:40;5.43;;;3.65;;
71366;SDS011;60030;52.274;8.040;2022-08-01T00:43:07;3.70;;;3.30;;
71366;SDS011;60030;52.274;8.040;2022-08-01T00:45:35;6.13;;;3.58;;
71366;SDS011;60030;52.274;8.040;2022-08-01T00:48:02;6.13;;;3.47;;
71366;SDS011;60030;52.274;8.040;2022-08-01T00:50:30;5.82;;;3.40;;
71366;SDS011;60030;52.274;8.040;2022-08-01T00:52:58;5.55;;;3.75;;
71366;SDS011;60030;52.274;8.040;2022-08-01T00:55:26;5.47;;;3.80;;
71366;SDS011;60030;52.274;8.040;2022-08-01T00:57:53;5.07;;;3.53;;
71366;SDS011;60030;52.274;8.040;2022-08-01T01:00:21;6.22;;;3.92;;
71366;SDS011;60030;52.274;8.040;2022-08-01T01:02:49;6.53;;;3.43;;
71366;SDS011;60030;52.274;8.040;2022-08-01T01:05:16;5.55;;;3.28;;
71366;SDS011;60030;52.274;8.040;2022-08-01T01:07:45;4.95;;;3.50;;
71366;SDS011;60030;52.274;8.040;2022-08-01T01:10:16;5.18;;;3.30;;
71366;SDS011;60030;52.274;8.040;2022-08-01T01:12:48;5.70;;;3.30;;
71366;SDS011;60030;52.274;8.040;2022-08-01T01:15:22;4.43;;;3.17;;
71366;SDS011;60030;52.274;8.040;2022-08-01T01:17:57;5.03;;;3.10;;
71366;SDS011;60030;52.274;8.040;2022-08-01T01:20:30;4.20;;;3.08;;
71366;SDS011;60030;52.274;8.040;2022-08-01T01:23:08;5.00;;;3.10;;
71366;SDS011;60030;52.274;8.040;2022-08-01T01:25:51;5.47;;;3.42;;
71366;SDS011;60030;52.274;8.040;2022-08-01T01:28:29;4.93;;;3.55;;
71366;SDS011;60030;52.274;8.040;2022-08-01T01:31:03;6.82;;;3.20;;
71366;SDS011;60030;52.274;8.040;2022-08-01T01:33:34;6.38;;;3.72;;
71366;SDS011;60030;52.274;8.040;2022-08-01T01:36:05;4.32;;;3.30;;
71366;SDS011;60030;52.274;8.040;2022-08-01T01:38:44;4.22;;;3.20;;
71366;SDS011;60030;52.274;8.040;2022-08-01T01:41:14;4.97;;;3.25;;
71366;SDS011;60030;52.274;8.040;2022-08-01T01:43:43;6.35;;;3.78;;
71366;SDS011;60030;52.274;8.040;2022-08-01T01:46:15;4.43;;;3.03;;
71366;SDS011;60030;52.274;8.040;2022-08-01T01:48:46;4.07;;;3.08;;
71366;SDS011;60030;52.274;8.040;2022-08-01T01:51:15;4.47;;;3.00;;
71366;SDS011;60030;52.274;8.040;2022-08-01T01:53:42;4.43;;;3.47;;
71366;SDS011;60030;52.274;8.040;2022-08-01T01:56:11;5.70;;;3.30;;
71366;SDS011;60030;52.274;8.040;2022-08-01T01:58:41;3.20;;;2.90;;
71366;SDS011;60030;52.274;8.040;2022-08-01T02:01:09;6.13;;;3.35;;
71366;SDS011;60030;52.274;8.040;2022-08-01T02:03:39;4.80;;;3.53;;
71366;SDS011;60030;52.274;8.040;2022-08-01T02:06:07;5.90;;;3.50;;
71366;SDS011;60030;52.274;8.040;2022-08-01T02:08:35;6.53;;;3.78;;
71366;SDS011;60030;52.274;8.040;2022-08-01T02:11:04;7.20;;;3.78;;
71366;SDS011;60030;52.274;8.040;2022-08-01T02:13:48;5.43;;;3.70;;
71366;SDS011;60030;52.274;8.040;2022-08-01T02:16:19;6.60;;;4.07;;
71366;SDS011;60030;52.274;8.040;2022-08-01T02:18:50;5.60;;;4.20;;
71366;SDS011;60030;52.274;8.040;2022-08-01T02:21:19;4.65;;;3.60;;
71366;SDS011;60030;52.274;8.040;2022-08-01T02:23:50;5.82;;;4.30;;
71366;SDS011;60030;52.274;8.040;2022-08-01T02:26:19;5.05;;;4.30;;
71366;SDS011;60030;52.274;8.040;2022-08-01T02:28:49;6.65;;;3.92;;
71366;SDS011;60030;52.274;8.040;2022-08-01T02:31:20;5.68;;;3.80;;
71366;SDS011;60030;52.274;8.040;2022-08-01T02:33:52;5.78;;;4.03;;
71366;SDS011;60030;52.274;8.040;2022-08-01T02:36:24;5.45;;;3.85;;
71366;SDS011;60030;52.274;8.040;2022-08-01T02:38:53;7.38;;;4.60;;
71366;SDS011;60030;52.274;8.040;2022-08-01T02:41:22;5.82;;;3.70;;
71366;SDS011;60030;52.274;8.040;2022-08-01T02:43:51;5.57;;;4.03;;
71366;SDS011;60030;52.274;8.040;2022-08-01T02:46:24;5.78;;;4.43;;
71366;SDS011;60030;52.274;8.040;2022-08-01T02:48:58;5.57;;;4.10;;
71366;SDS011;60030;52.274;8.040;2022-08-01T02:51:27;5.15;;;3.70;;
71366;SDS011;60030;52.274;8.040;2022-08-01T02:53:57;7.00;;;4.13;;
71366;SDS011;60030;52.274;8.040;2022-08-01T02:56:26;9.63;;;5.18;;
71366;SDS011;60030;52.274;8.040;2022-08-01T02:59:00;8.98;;;4.53;;
71366;SDS011;60030;52.274;8.040;2022-08-01T03:01:30;6.82;;;4.25;;
71366;SDS011;60030;52.274;8.040;2022-08-01T03:04:00;7.23;;;4.30;;
71366;SDS011;60030;52.274;8.040;2022-08-01T03:06:28;5.38;;;4.60;;
71366;SDS011;60030;52.274;8.040;2022-08-01T03:08:56;6.85;;;4.88;;
71366;SDS011;60030;52.274;8.040;2022-08-01T03:11:26;6.82;;;4.72;;
71366;SDS011;60030;52.274;8.040;2022-08-01T03:13:54;5.78;;;4.05;;
71366;SDS011;60030;52.274;8.040;2022-08-01T03:16:23;6.00;;;4.10;;
71366;SDS011;60030;52.274;8.040;2022-08-01T03:18:51;5.45;;;4.60;;
71366;SDS011;60030;52.274;8.040;2022-08-01T03:21:23;9.45;;;5.18;;
71366;SDS011;60030;52.274;8.040;2022-08-01T03:23:51;7.80;;;6.00;;
71366;SDS011;60030;52.274;8.040;2022-08-01T03:26:23;8.85;;;5.90;;
71366;SDS011;60030;52.274;8.040;2022-08-01T03:28:55;9.25;;;6.70;;
71366;SDS011;60030;52.274;8.040;2022-08-01T03:31:25;8.05;;;5.72;;
71366;SDS011;60030;52.274;8.040;2022-08-01T03:33:52;7.25;;;6.03;;
71366;SDS011;60030;52.274;8.040;2022-08-01T03:36:20;9.30;;;7.03;;
71366;SDS011;60030;52.274;8.040;2022-08-01T03:38:53;8.93;;;7.35;;
71366;SDS011;60030;52.274;8.040;2022-08-01T03:41:23;9.93;;;6.47;;
71366;SDS011;60030;52.274;8.040;2022-08-01T03:43:55;12.93;;;6.85;;
71366;SDS011;60030;52.274;8.040;2022-08-01T03:46:26;8.25;;;5.95;;
71366;SDS011;60030;52.274;8.040;2022-08-01T03:48:58;8.70;;;6.10;;
71366;SDS011;60030;52.274;8.040;2022-08-01T03:51:31;9.30;;;6.13;;
71366;SDS011;60030;52.274;8.040;2022-08-01T03:54:00;10.35;;;6.15;;
71366;SDS011;60030;52.274;8.040;2022-08-01T03:56:28;9.68;;;6.93;;
71366;SDS011;60030;52.274;8.040;2022-08-01T03:58:58;9.98;;;6.28;;
71366;SDS011;60030;52.274;8.040;2022-08-01T04:01:25;8.35;;;6.22;;
71366;SDS011;60030;52.274;8.040;2022-08-01T04:03:54;9.02;;;6.90;;
71366;SDS011;60030;52.274;8.040;2022-08-01T04:06:21;8.48;;;5.75;;
71366;SDS011;60030;52.274;8.040;2022-08-01T04:08:50;8.73;;;5.95;;
71366;SDS011;60030;52.274;8.040;2022-08-01T04:11:21;10.03;;;6.30;;
71366;SDS011;60030;52.274;8.040;2022-08-01T04:13:50;9.25;;;6.32;;
71366;SDS011;60030;52.274;8.040;2022-08-01T04:16:18;8.07;;;5.93;;
71366;SDS011;60030;52.274;8.040;2022-08-01T04:18:45;8.48;;;6.20;;
71366;SDS011;60030;52.274;8.040;2022-08-01T04:21:13;9.07;;;5.88;;
71366;SDS011;60030;52.274;8.040;2022-08-01T04:23:40;8.55;;;6.82;;
71366;SDS011;60030;52.274;8.040;2022-08-01T04:26:11;8.63;;;6.47;;
71366;SDS011;60030;52.274;8.040;2022-08-01T04:28:40;8.45;;;5.55;;
71366;SDS011;60030;52.274;8.040;2022-08-01T04:31:09;8.52;;;5.55;;
71366;SDS011;60030;52.274;8.040;2022-08-01T04:33:38;7.73;;;5.13;;
71366;SDS011;60030;52.274;8.040;2022-08-01T04:36:10;6.82;;;5.82;;
71366;SDS011;60030;52.274;8.040;2022-08-01T04:38:40;9.02;;;5.97;;
71366;SDS011;60030;52.274;8.040;2022-08-01T04:41:11;9.05;;;6.05;;
71366;SDS011;60030;52.274;8.040;2022-08-01T04:43:40;7.95;;;5.35;;
71366;SDS011;60030;52.274;8.040;2022-08-01T04:46:08;7.68;;;5.80;;
71366;SDS011;60030;52.274;8.040;2022-08-01T04:48:38;7.57;;;5.63;;
71366;SDS011;60030;52.274;8.040;2022-08-01T04:51:10;7.53;;;5.38;;
71366;SDS011;60030;52.274;8.040;2022-08-01T04:53:40;6.68;;;4.80;;
71366;SDS011;60030;52.274;8.040;2022-08-01T04:56:07;6.65;;;5.38;;
71366;SDS011;60030;52.274;8.040;2022-08-01T04:58:36;6.97;;;5.85;;
71366;SDS011;60030;52.274;8.040;2022-08-01T05:01:03;5.88;;;4.80;;
71366;SDS011;60030;52.274;8.040;2022-08-01T05:03:30;7.10;;;5.35;;
71366;SDS011;60030;52.274;8.040;2022-08-01T05:05:57;7.68;;;5.03;;
71366;SDS011;60030;52.274;8.040;2022-08-01T05:08:24;7.00;;;4.95;;
71366;SDS011;60030;52.274;8.040;2022-08-01T05:10:51;6.53;;;4.63;;
71366;SDS011;60030;52.274;8.040;2022-08-01T05:13:19;6.28;;;4.95;;
71366;SDS011;60030;52.274;8.040;2022-08-01T05:15:47;6.75;;;4.75;;
71366;SDS011;60030;52.274;8.040;2022-08-01T05:18:14;7.07;;;4.70;;
71366;SDS011;60030;52.274;8.040;2022-08-01T05:20:41;6.30;;;4.40;;
71366;SDS011;60030;52.274;8.040;2022-08-01T05:23:08;6.45;;;4.63;;
71366;SDS011;60030;52.274;8.040;2022-08-01T05:25:36;5.80;;;4.38;;
71366;SDS011;60030;52.274;8.040;2022-08-01T05:28:04;6.35;;;5.03;;
71366;SDS011;60030;52.274;8.040;2022-08-01T05:30:31;8.43;;;4.80;;
71366;SDS011;60030;52.274;8.040;2022-08-01T05:32:59;5.90;;;4.20;;
71366;SDS011;60030;52.274;8.040;2022-08-01T05:35:26;20.17;;;13.23;;
71366;SDS011;60030;52.274;8.040;2022-08-01T05:37:53;4.63;;;4.07;;
71366;SDS011;60030;52.274;8.040;2022-08-01T05:40:20;6.32;;;4.90;;
71366;SDS011;60030;52.274;8.040;2022-08-01T05:42:47;7.00;;;5.13;;
71366;SDS011;60030;52.274;8.040;2022-08-01T05:45:14;7.35;;;5.43;;
71366;SDS011;60030;52.274;8.040;2022-08-01T05:47:41;6.97;;;4.95;;
71366;SDS011;60030;52.274;8.040;2022-08-01T05:50:10;6.85;;;5.28;;
71366;SDS011;60030;52.274;8.040;2022-08-01T05:52:37;8.30;;;5.22;;
71366;SDS011;60030;52.274;8.040;2022-08-01T05:55:05;6.38;;;4.03;;
71366;SDS011;60030;52.274;8.040;2022-08-01T05:57:33;4.15;;;3.70;;
71366;SDS011;60030;52.274;8.040;2022-08-01T06:00:00;4.90;;;3.80;;
71366;SDS011;60030;52.274;8.040;2022-08-01T06:02:39;5.90;;;3.30;;
71366;SDS011;60030;52.274;8.040;2022-08-01T06:05:07;4.10;;;3.30;;
71366;SDS011;60030;52.274;8.040;2022-08-01T06:07:36;3.40;;;2.55;;
71366;SDS011;60030;52.274;8.040;2022-08-01T06:10:05;3.47;;;2.42;;
71366;SDS011;60030;52.274;8.040;2022-08-01T06:12:33;4.40;;;3.20;;
71366;SDS011;60030;52.274;8.040;2022-08-01T06:15:01;4.53;;;3.20;;
71366;SDS011;60030;52.274;8.040;2022-08-01T06:17:29;4.50;;;2.67;;
71366;SDS011;60030;52.274;8.040;2022-08-01T06:19:56;5.18;;;3.08;;
71366;SDS011;60030;52.274;8.040;2022-08-01T06:22:24;3.97;;;2.90;;
71366;SDS011;60030;52.274;8.040;2022-08-01T06:24:51;5.82;;;3.55;;
71366;SDS011;60030;52.274;8.040;2022-08-01T06:27:18;6.75;;;2.97;;
71366;SDS011;60030;52.274;8.040;2022-08-01T06:29:46;4.72;;;2.80;;
71366;SDS011;60030;52.274;8.040;2022-08-01T06:32:14;4.80;;;3.73;;
71366;SDS011;60030;52.274;8.040;2022-08-01T06:34:41;6.07;;;4.30;;
71366;SDS011;60030;52.274;8.040;2022-08-01T06:37:08;4.97;;;4.07;;
71366;SDS011;60030;52.274;8.040;2022-08-01T06:39:36;5.18;;;4.05;;
71366;SDS011;60030;52.274;8.040;2022-08-01T06:42:03;12.48;;;9.23;;
71366;SDS011;60030;52.274;8.040;2022-08-01T06:44:31;8.98;;;5.80;;
71366;SDS011;60030;52.274;8.040;2022-08-01T06:46:58;5.45;;;4.35;;
71366;SDS011;60030;52.274;8.040;2022-08-01T06:49:25;6.65;;;4.40;;
71366;SDS011;60030;52.274;8.040;2022-08-01T06:51:52;4.40;;;3.60;;
71366;SDS011;60030;52.274;8.040;2022-08-01T06:54:19;7.13;;;4.28;;
71366;SDS011;60030;52.274;8.040;2022-08-01T06:56:48;6.97;;;4.05;;
71366;SDS011;60030;52.274;8.040;2022-08-01T06:59:15;7.72;;;3.70;;
71366;SDS011;60030;52.274;8.040;2022-08-01T07:01:42;5.78;;;3.50;;
71366;SDS011;60030;52.274;8.040;2022-08-01T07:04:09;6.25;;;3.72;;
71366;SDS011;60030;52.274;8.040;2022-08-01T07:06:36;7.78;;;3.60;;
71366;SDS011;60030;52.274;8.040;2022-08-01T07:09:03;5.60;;;2.97;;
71366;SDS011;60030;52.274;8.040;2022-08-01T07:11:30;4.10;;;2.88;;
71366;SDS011;60030;52.274;8.040;2022-08-01T07:13:58;3.88;;;2.58;;
71366;SDS011;60030;52.274;8.040;2022-08-01T07:16:26;7.47;;;3.17;;
71366;SDS011;60030;52.274;8.040;2022-08-01T07:18:53;3.42;;;2.10;;
71366;SDS011;60030;52.274;8.040;2022-08-01T07:21:20;2.10;;;1.90;;
71366;SDS011;60030;52.274;8.040;2022-08-01T07:23:47;3.65;;;1.92;;
71366;SDS011;60030;52.274;8.040;2022-08-01T07:26:14;2.72;;;1.73;;
71366;SDS011;60030;52.274;8.040;2022-08-01T07:28:42;2.35;;;1.90;;
71366;SDS011;60030;52.274;8.040;2022-08-01T07:31:11;4.03;;;1.90;;
71366;SDS011;60030;52.274;8.040;2022-08-01T07:33:38;4.10;;;1.73;;
71366;SDS011;60030;52.274;8.040;2022-08-01T07:36:05;2.38;;;1.70;;
71366;SDS011;60030;52.274;8.040;2022-08-01T07:38:32;4.05;;;1.98;;
71366;SDS011;60030;52.274;8.040;2022-08-01T07:40:59;2.13;;;1.67;;
71366;SDS011;60030;52.274;8.040;2022-08-01T07:43:27;3.50;;;1.40;;
71366;SDS011;60030;52.274;8.040;2022-08-01T07:45:54;2.63;;;1.52;;
71366;SDS011;60030;52.274;8.040;2022-08-01T07:48:23;2.53;;;1.40;;
71366;SDS011;60030;52.274;8.040;2022-08-01T07:50:50;2.47;;;1.42;;
71366;SDS011;60030;52.274;8.040;2022-08-01T07:53:17;3.60;;;1.38;;
71366;SDS011;60030;52.274;8.040;2022-08-01T07:55:45;2.75;;;1.50;;
71366;SDS011;60030;52.274;8.040;2022-08-01T07:58:12;2.47;;;1.30;;
71366;SDS011;60030;52.274;8.040;2022-08-01T08:00:39;1.83;;;1.30;;
71366;SDS011;60030;52.274;8.040;2022-08-01T08:03:06;4.53;;;1.48;;
71366;SDS011;60030;52.274;8.040;2022-08-01T08:05:34;2.45;;;1.65;;
71366;SDS011;60030;52.274;8.040;2022-08-01T08:08:02;4.82;;;1.20;;
71366;SDS011;60030;52.274;8.040;2022-08-01T08:10:30;3.65;;;1.50;;
71366;SDS011;60030;52.274;8.040;2022-08-01T08:12:58;3.67;;;1.60;;
71366;SDS011;60030;52.274;8.040;2022-08-01T08:15:26;4.70;;;1.90;;
71366;SDS011;60030;52.274;8.040;2022-08-01T08:17:53;3.78;;;2.17;;
71366;SDS011;60030;52.274;8.040;2022-08-01T08:20:20;3.55;;;1.90;;
71366;SDS011;60030;52.274;8.040;2022-08-01T08:22:51;3.30;;;1.80;;
71366;SDS011;60030;52.274;8.040;2022-08-01T08:25:18;2.80;;;1.63;;
71366;SDS011;60030;52.274;8.040;2022-08-01T08:27:47;2.97;;;1.50;;
71366;SDS011;60030;52.274;8.040;2022-08-01T08:30:15;3.50;;;1.85;;
71366;SDS011;60030;52.274;8.040;2022-08-01T08:32:42;6.47;;;4.20;;
71366;SDS011;60030;52.274;8.040;2022-08-01T08:35:09;2.63;;;2.10;;
71366;SDS011;60030;52.274;8.040;2022-08-01T08:37:37;5.63;;;1.90;;
71366;SDS011;60030;52.274;8.040;2022-08-01T08:40:06;6.95;;;2.03;;
71366;SDS011;60030;52.274;8.040;2022-08-01T08:42:34;2.20;;;1.52;;
71366;SDS011;60030;52.274;8.040;2022-08-01T08:45:01;4.25;;;1.58;;
71366;SDS011;60030;52.274;8.040;2022-08-01T08:47:28;1.70;;;1.60;;
71366;SDS011;60030;52.274;8.040;2022-08-01T08:49:59;4.05;;;1.90;;
71366;SDS011;60030;52.274;8.040;2022-08-01T08:52:29;3.67;;;2.10;;
71366;SDS011;60030;52.274;8.040;2022-08-01T08:54:58;2.15;;;1.60;;
71366;SDS011;60030;52.274;8.040;2022-08-01T08:57:27;2.80;;;1.50;;
71366;SDS011;60030;52.274;8.040;2022-08-01T08:59:54;2.90;;;1.60;;
71366;SDS011;60030;52.274;8.040;2022-08-01T09:02:22;5.78;;;1.83;;
71366;SDS011;60030;52.274;8.040;2022-08-01T09:04:49;4.07;;;1.60;;
71366;SDS011;60030;52.274;8.040;2022-08-01T09:07:16;2.97;;;1.70;;
71366;SDS011;60030;52.274;8.040;2022-08-01T09:09:43;1.40;;;1.30;;
71366;SDS011;60030;52.274;8.040;2022-08-01T09:12:15;2.22;;;1.42;;
71366;SDS011;60030;52.274;8.040;2022-08-01T09:14:47;3.80;;;1.40;;
71366;SDS011;60030;52.274;8.040;2022-08-01T09:17:18;4.82;;;1.83;;
71366;SDS011;60030;52.274;8.040;2022-08-01T09:19:47;3.72;;;1.80;;
71366;SDS011;60030;52.274;8.040;2022-08-01T09:22:17;5.55;;;1.60;;
71366;SDS011;60030;52.274;8.040;2022-08-01T09:24:56;4.78;;;2.10;;
71366;SDS011;60030;52.274;8.040;2022-08-01T09:27:25;4.65;;;1.75;;
71366;SDS011;60030;52.274;8.040;2022-08-01T09:29:54;4.45;;;1.80;;
71366;SDS011;60030;52.274;8.040;2022-08-01T09:32:33;4.07;;;1.80;;
71366;SDS011;60030;52.274;8.040;2022-08-01T09:35:00;2.78;;;1.85;;
71366;SDS011;60030;52.274;8.040;2022-08-01T09:37:51;3.75;;;1.73;;
71366;SDS011;60030;52.274;8.040;2022-08-01T09:40:46;2.95;;;1.80;;
71366;SDS011;60030;52.274;8.040;2022-08-01T09:43:16;4.93;;;1.77;;
71366;SDS011;60030;52.274;8.040;2022-08-01T09:45:45;3.83;;;2.35;;
71366;SDS011;60030;52.274;8.040;2022-08-01T09:48:12;4.30;;;1.90;;
71366;SDS011;60030;52.274;8.040;2022-08-01T09:50:41;3.63;;;1.60;;
71366;SDS011;60030;52.274;8.040;2022-08-01T09:53:09;3.75;;;1.80;;
71366;SDS011;60030;52.274;8.040;2022-08-01T09:55:37;4.78;;;1.90;;
71366;SDS011;60030;52.274;8.040;2022-08-01T09:58:05;5.22;;;1.95;;
71366;SDS011;60030;52.274;8.040;2022-08-01T10:00:33;5.30;;;2.08;;
71366;SDS011;60030;52.274;8.040;2022-08-01T10:03:17;3.30;;;1.85;;
71366;SDS011;60030;52.274;8.040;2022-08-01T10:05:46;6.13;;;1.70;;
71366;SDS011;60030;52.274;8.040;2022-08-01T10:08:13;3.33;;;2.03;;
71366;SDS011;60030;52.274;8.040;2022-08-01T10:10:40;3.78;;;1.80;;
71366;SDS011;60030;52.274;8.040;2022-08-01T10:13:08;4.95;;;1.80;;
71366;SDS011;60030;52.274;8.040;2022-08-01T10:15:37;3.45;;;1.98;;
71366;SDS011;60030;52.274;8.040;2022-08-01T10:18:06;4.03;;;1.92;;
71366;SDS011;60030;52.274;8.040;2022-08-01T10:20:35;3.42;;;2.20;;
71366;SDS011;60030;52.274;8.040;2022-08-01T10:23:03;5.72;;;2.50;;
71366;SDS011;60030;52.274;8.040;2022-08-01T10:25:33;2.85;;;2.20;;
71366;SDS011;60030;52.274;8.040;2022-08-01T10:28:01;7.63;;;3.17;;
71366;SDS011;60030;52.274;8.040;2022-08-01T10:30:38;2.83;;;2.17;;
71366;SDS011;60030;52.274;8.040;2022-08-01T10:33:10;7.40;;;2.67;;
71366;SDS011;60030;52.274;8.040;2022-08-01T10:35:37;5.88;;;2.10;;
71366;SDS011;60030;52.274;8.040;2022-08-01T10:38:05;4.72;;;2.30;;
71366;SDS011;60030;52.274;8.040;2022-08-01T10:40:33;3.72;;;2.53;;
71366;SDS011;60030;52.274;8.040;2022-08-01T10:43:02;3.90;;;2.00;;
71366;SDS011;60030;52.274;8.040;2022-08-01T10:45:29;4.47;;;2.20;;
71366;SDS011;60030;52.274;8.040;2022-08-01T10:47:59;5.03;;;2.00;;
71366;SDS011;60030;52.274;8.040;2022-08-01T10:50:34;4.72;;;2.00;;
71366;SDS011;60030;52.274;8.040;2022-08-01T10:53:07;6.28;;;1.83;;
71366;SDS011;60030;52.274;8.040;2022-08-01T10:55:50;3.85;;;2.20;;
71366;SDS011;60030;52.274;8.040;2022-08-01T10:58:25;5.70;;;2.10;;
71366;SDS011;60030;52.274;8.040;2022-08-01T11:03:40;6.78;;;2.10;;
71366;SDS011;60030;52.274;8.040;2022-08-01T11:06:12;3.88;;;2.13;;
71366;SDS011;60030;52.274;8.040;2022-08-01T11:08:45;4.63;;;1.98;;
71366;SDS011;60030;52.274;8.040;2022-08-01T11:11:18;2.55;;;1.60;;
71366;SDS011;60030;52.274;8.040;2022-08-01T11:16:37;3.03;;;1.42;;
71366;SDS011;60030;52.274;8.040;2022-08-01T11:19:07;2.90;;;1.80;;
71366;SDS011;60030;52.274;8.040;2022-08-01T11:27:27;4.15;;;1.88;;
71366;SDS011;60030;52.274;8.040;2022-08-01T11:32:55;5.55;;;1.50;;
71366;SDS011;60030;52.274;8.040;2022-08-01T11:35:23;5.80;;;1.80;;
71366;SDS011;60030;52.274;8.040;2022-08-01T11:37:53;3.33;;;1.55;;
71366;SDS011;60030;52.274;8.040;2022-08-01T11:40:22;4.15;;;1.77;;
71366;SDS011;60030;52.274;8.040;2022-08-01T11:45:47;3.17;;;1.63;;
71366;SDS011;60030;52.274;8.040;2022-08-01T11:48:19;7.38;;;2.17;;
71366;SDS011;60030;52.274;8.040;2022-08-01T11:50:47;5.60;;;2.40;;
71366;SDS011;60030;52.274;8.040;2022-08-01T11:53:17;6.93;;;2.10;;
71366;SDS011;60030;52.274;8.040;2022-08-01T11:55:46;4.85;;;1.90;;
71366;SDS011;60030;52.274;8.040;2022-08-01T11:58:15;10.23;;;2.63;;
71366;SDS011;60030;52.274;8.040;2022-08-01T12:00:49;4.47;;;1.60;;
71366;SDS011;60030;52.274;8.040;2022-08-01T12:03:22;4.97;;;2.22;;
71366;SDS011;60030;52.274;8.040;2022-08-01T12:05:52;10.32;;;2.50;;
71366;SDS011;60030;52.274;8.040;2022-08-01T12:08:27;8.30;;;2.28;;
71366;SDS011;60030;52.274;8.040;2022-08-01T12:10:58;3.95;;;1.80;;
71366;SDS011;60030;52.274;8.040;2022-08-01T12:13:26;6.03;;;1.65;;
71366;SDS011;60030;52.274;8.040;2022-08-01T12:15:54;5.88;;;2.20;;
71366;SDS011;60030;52.274;8.040;2022-08-01T12:18:21;4.10;;;2.13;;
71366;SDS011;60030;52.274;8.040;2022-08-01T12:20:48;5.72;;;1.98;;
71366;SDS011;60030;52.274;8.040;2022-08-01T12:23:15;8.35;;;2.35;;
71366;SDS011;60030;52.274;8.040;2022-08-01T12:25:44;5.97;;;2.05;;
71366;SDS011;60030;52.274;8.040;2022-08-01T12:28:18;6.93;;;2.22;;
71366;SDS011;60030;52.274;8.040;2022-08-01T12:30:46;7.10;;;1.77;;
71366;SDS011;60030;52.274;8.040;2022-08-01T12:33:16;4.28;;;1.90;;
71366;SDS011;60030;52.274;8.040;2022-08-01T12:35:44;6.43;;;1.75;;
71366;SDS011;60030;52.274;8.040;2022-08-01T12:38:13;6.18;;;1.90;;
71366;SDS011;60030;52.274;8.040;2022-08-01T12:40:42;4.55;;;2.40;;
71366;SDS011;60030;52.274;8.040;2022-08-01T12:43:15;8.02;;;2.30;;
71366;SDS011;60030;52.274;8.040;2022-08-01T12:45:43;6.50;;;2.20;;
71366;SDS011;60030;52.274;8.040;2022-08-01T12:48:12;7.75;;;2.15;;
71366;SDS011;60030;52.274;8.040;2022-08-01T12:50:41;8.50;;;2.28;;
71366;SDS011;60030;52.274;8.040;2022-08-01T12:53:10;5.22;;;2.35;;
71366;SDS011;60030;52.274;8.040;2022-08-01T12:55:45;6.03;;;2.10;;
71366;SDS011;60030;52.274;8.040;2022-08-01T12:58:14;5.38;;;2.08;;
71366;SDS011;60030;52.274;8.040;2022-08-01T13:00:42;7.53;;;2.10;;
71366;SDS011;60030;52.274;8.040;2022-08-01T13:03:12;8.60;;;2.00;;
71366;SDS011;60030;52.274;8.040;2022-08-01T13:05:40;11.70;;;2.70;;
71366;SDS011;60030;52.274;8.040;2022-08-01T13:08:09;8.35;;;1.92;;
71366;SDS011;60030;52.274;8.040;2022-08-01T13:10:37;7.07;;;1.75;;
71366;SDS011;60030;52.274;8.040;2022-08-01T13:13:06;4.88;;;1.70;;
71366;SDS011;60030;52.274;8.040;2022-08-01T13:15:34;2.45;;;1.80;;
71366;SDS011;60030;52.274;8.040;2022-08-01T13:20:50;5.20;;;1.98;;
71366;SDS011;60030;52.274;8.040;2022-08-01T13:23:34;7.22;;;2.22;;
71366;SDS011;60030;52.274;8.040;2022-08-01T13:26:01;6.38;;;2.00;;
71366;SDS011;60030;52.274;8.040;2022-08-01T13:28:31;5.75;;;2.03;;
71366;SDS011;60030;52.274;8.040;2022-08-01T13:30:59;5.68;;;1.90;;
71366;SDS011;60030;52.274;8.040;2022-08-01T13:33:41;6.07;;;2.08;;
71366;SDS011;60030;52.274;8.040;2022-08-01T13:36:09;7.72;;;1.98;;
71366;SDS011;60030;52.274;8.040;2022-08-01T13:38:37;6.82;;;2.00;;
71366;SDS011;60030;52.274;8.040;2022-08-01T13:41:22;10.13;;;2.20;;
71366;SDS011;60030;52.274;8.040;2022-08-01T13:43:51;7.03;;;2.00;;
71366;SDS011;60030;52.274;8.040;2022-08-01T13:46:20;6.63;;;2.00;;
71366;SDS011;60030;52.274;8.040;2022-08-01T13:48:47;4.60;;;2.00;;
71366;SDS011;60030;52.274;8.040;2022-08-01T13:51:14;7.63;;;2.13;;
71366;SDS011;60030;52.274;8.040;2022-08-01T13:53:41;8.68;;;1.98;;
71366;SDS011;60030;52.274;8.040;2022-08-01T13:56:08;4.93;;;1.73;;
71366;SDS011;60030;52.274;8.040;2022-08-01T13:58:36;9.05;;;1.90;;
71366;SDS011;60030;52.274;8.040;2022-08-01T14:01:04;6.38;;;2.00;;
71366;SDS011;60030;52.274;8.040;2022-08-01T14:03:31;5.25;;;2.03;;
71366;SDS011;60030;52.274;8.040;2022-08-01T14:05:58;4.93;;;1.85;;
71366;SDS011;60030;52.274;8.040;2022-08-01T14:08:25;6.03;;;2.00;;
71366;SDS011;60030;52.274;8.040;2022-08-01T14:10:52;6.95;;;2.17;;
71366;SDS011;60030;52.274;8.040;2022-08-01T14:13:22;5.47;;;2.30;;
71366;SDS011;60030;52.274;8.040;2022-08-01T14:15:50;6.07;;;2.00;;
71366;SDS011;60030;52.274;8.040;2022-08-01T14:18:18;4.70;;;2.17;;
71366;SDS011;60030;52.274;8.040;2022-08-01T14:20:46;4.53;;;2.00;;
71366;SDS011;60030;52.274;8.040;2022-08-01T14:23:13;5.78;;;2.30;;
71366;SDS011;60030;52.274;8.040;2022-08-01T14:25:40;7.32;;;2.30;;
71366;SDS011;60030;52.274;8.040;2022-08-01T14:28:07;5.30;;;1.95;;
71366;SDS011;60030;52.274;8.040;2022-08-01T14:30:35;5.25;;;2.00;;
71366;SDS011;60030;52.274;8.040;2022-08-01T14:33:03;6.78;;;2.05;;
71366;SDS011;60030;52.274;8.040;2022-08-01T14:35:31;5.40;;;2.13;;
71366;SDS011;60030;52.274;8.040;2022-08-01T14:37:58;4.93;;;1.80;;
71366;SDS011;60030;52.274;8.040;2022-08-01T14:40:26;4.80;;;2.17;;
71366;SDS011;60030;52.274;8.040;2022-08-01T14:42:53;5.22;;;2.20;;
71366;SDS011;60030;52.274;8.040;2022-08-01T14:45:20;6.82;;;2.30;;
71366;SDS011;60030;52.274;8.040;2022-08-01T14:47:47;5.30;;;2.33;;
71366;SDS011;60030;52.274;8.040;2022-08-01T14:50:14;6.65;;;2.20;;
71366;SDS011;60030;52.274;8.040;2022-08-01T14:52:43;7.47;;;2.38;;
71366;SDS011;60030;52.274;8.040;2022-08-01T14:55:11;6.03;;;2.08;;
71366;SDS011;60030;52.274;8.040;2022-08-01T14:57:39;5.10;;;1.75;;
71366;SDS011;60030;52.274;8.040;2022-08-01T15:00:07;6.68;;;2.00;;
71366;SDS011;60030;52.274;8.040;2022-08-01T15:02:36;4.30;;;1.85;;
71366;SDS011;60030;52.274;8.040;2022-08-01T15:05:04;9.02;;;1.98;;
71366;SDS011;60030;52.274;8.040;2022-08-01T15:07:32;6.40;;;1.98;;
71366;SDS011;60030;52.274;8.040;2022-08-01T15:10:00;3.60;;;1.80;;
71366;SDS011;60030;52.274;8.040;2022-08-01T15:12:28;7.28;;;2.08;;
71366;SDS011;60030;52.274;8.040;2022-08-01T15:14:55;4.10;;;2.10;;
71366;SDS011;60030;52.274;8.040;2022-08-01T15:17:23;6.65;;;1.92;;
71366;SDS011;60030;52.274;8.040;2022-08-01T15:19:54;6.47;;;1.88;;